Watkins, Iowa
Current Conditions -  °F | °C
As of 6:52 PM on Saturday 22 Nov 2014 (Local Time) from KCID Reporting Station
Haze Haze  
Wind Chill: 52°   Ceiling: 700
Heat Index: 52°   Visibility: 6mi
Dew Point: 52°   Wind: 14mph
Humidity: 100%   Direction: 180°S
Pressure: 29.74"   Gusts: NA
Location:  41.89°N, 91.99°W
Report Text: KCID 230052Z 18012KT 6SM BR OVC007 11/11 A2974 RMK AO2 CIG 006V010 SLP075 T01110111
Loading
Personal Weather Stations






























Interactive Weather Map New forecast layout! Learn more

10-Day Weather Forecast

Advertisements
Track Severe Weather on mobile